Back to Top
Banner_Quays_at_Mast_2020.jpeg
Banner_VERITY.jpeg
Banner_P42_Kinsale_2004.jpeg
Superyacht_SCOUT.jpg
Kinsale_Trawlers_Banner.jpeg
previous arrow
next arrow

Port Arrivals Report (AIS)

This report is generated from collected AIS (Automated Identification System) signals from vessels entering port.

IMO MMSI Class Flag Vessel Name Vessel type Nav Status Destination Call Sign Latitude Longitude Speed (kts) Course (T) Draught (m) LOA (m) Beam (m) Timestamp
0 244183081 B NL MAWIMBI SAILING. - PC6578 51.6878 -8.49737 7.6 352.3 0 14 4 2024-07-21 15:30:32
0 250004275 B IE SHEARWATER SAILING. - EI-SE-9 51.6885 -8.49697 6.9 342.5 0 12 4 2024-07-21 15:28:22
0 232014201 B GB RELAX OF PHOENIX SAILING. - MCRJ4 51.6879 -8.49721 6.4 354.4 0 13 4 2024-07-21 13:39:31
0 250014182 A IE LADY CATHERINE PASSENGER. - EIA2647 51.6886 -8.49819 10.2 333.6 0 0 0 2024-07-21 13:25:21
0 250103750 B IE HARPY DREDGING / UNDERWATER Ops. - EI7410 51.6913 -8.5024 11.4 346 0 13 4 2024-07-21 13:07:59
0 250003677 B IE SIBONEY SAILING. - EI-QT-2 51.6877 -8.50048 4.9 351.8 0 9 4 2024-07-21 09:28:34
0 227102010 B FR GANESH SAILING. - 51.6871 -8.49724 6 28.6 0 10 3 2024-07-20 19:33:10
0 250006504 B IE SEA MONKEY SAILING. - EI-ZF-4 51.6879 -8.4962 5.7 331.7 0 12 4 2024-07-20 19:18:48
0 227956850 B FR GUS SAILING. - FAG6150 51.6875 -8.4982 3.8 9.8 0 13 4 2024-07-20 18:00:42
0 250000454 B IE ANYWAY THE WIND BLOW SAILING. - EI 8214 51.6872 -8.49831 3.9 350.1 0 11 4 2024-07-20 16:38:05
0 250103750 B IE HARPY DREDGING / UNDERWATER Ops. - EI7410 51.6877 -8.50138 10.3 349.7 0 13 4 2024-07-20 16:20:12
0 250006598 B IE AN FANAI Pleasure craft - EI ZO 6 51.6872 -8.4969 5.5 21.1 0 8 3 2024-07-20 15:11:23
0 250014182 A IE LADY CATHERINE PASSENGER. - EIA2647 51.6873 -8.49725 9.7 344.9 0 0 0 2024-07-20 14:16:39
0 259015450 B NO FRK. STROKEN SAILING. - LE4765 51.688 -8.49832 4.6 346.8 0 11 4 2024-07-20 13:42:45
0 250006539 B IE ARTFUL DODJER SAILING. - EI-ZJ-3 51.6886 -8.49869 6.5 344.4 0 11 4 2024-07-20 13:35:32
0 227251150 B FR SAYDANAH SAILING. - 51.6885 -8.49781 5.5 348.6 0 12 4 2024-07-20 13:31:16
0 250005095 B IE GGENESIS SAILING. - EITK2 51.6872 -8.50059 5 350.7 0 11 4 2024-07-20 11:44:16
0 232016609 B GB RNLI LIFEBOAT B-909 SAR. - 51.6881 -8.50024 22.6 346.8 0 8 2 2024-07-20 09:38:18
0 50000954 A 500 JENNY M FISHING. Engaged in Fishing FISHING GROUNDS EIBN6 51.6881 -8.49921 7.2 351.5 2.8 19 4 2024-07-20 05:24:42
0 250003677 B IE SIBONEY SAILING. - EI-QT-2 51.6875 -8.49749 5 295.1 0 9 4 2024-07-19 20:13:02